Time;durP1;ratioP1;P1;durP2;ratioP2;P2;SDS_P1;SDS_P2;PMS_P1;PMS_P2;Temp;Humidity;BMP_temperature;BMP_pressure;BME280_temperature;BME280_humidity;BME280_pressure;Samples;Min_cycle;Max_cycle;Signal;HPM_P1;HPM_P2
2021/01/07 00:01:00;;;;;;;4.53;3.77;;;1.10;99.90;;;;;;5026202;28;20522;-47
2021/01/07 00:03:26;;;;;;;5.43;4.13;;;1.10;99.90;;;;;;5022581;28;20183;-45
2021/01/07 00:05:51;;;;;;;4.50;3.63;;;1.10;99.90;;;;;;5018568;28;20198;-46
2021/01/07 00:08:17;;;;;;;4.97;3.50;;;1.10;99.90;;;;;;5013739;28;20190;-49
2021/01/07 00:10:43;;;;;;;5.17;3.97;;;1.10;99.90;;;;;;5022735;28;20711;-46
2021/01/07 00:13:09;;;;;;;4.50;4.03;;;1.10;99.90;;;;;;5025139;28;20686;-50
2021/01/07 00:15:34;;;;;;;5.10;4.07;;;1.10;99.90;;;;;;5023908;28;20175;-45
2021/01/07 00:17:59;;;;;;;4.97;3.80;;;1.10;99.90;;;;;;5026593;28;20233;-46
2021/01/07 00:20:25;;;;;;;4.50;3.83;;;1.10;99.90;;;;;;5021576;28;20873;-45
2021/01/07 00:22:50;;;;;;;5.97;4.67;;;1.10;99.90;;;;;;5014447;28;20533;-45
2021/01/07 00:25:16;;;;;;;4.40;3.70;;;1.10;99.90;;;;;;5009149;28;20690;-48
2021/01/07 00:27:41;;;;;;;4.27;3.60;;;1.10;99.90;;;;;;5025010;28;20214;-47
2021/01/07 00:30:07;;;;;;;4.10;3.70;;;1.10;99.90;;;;;;5024996;28;20346;-49
2021/01/07 00:32:33;;;;;;;3.87;3.33;;;1.10;99.90;;;;;;5023088;28;20203;-46
2021/01/07 00:34:58;;;;;;;4.60;3.83;;;1.10;99.90;;;;;;5025822;28;20176;-46
2021/01/07 00:37:24;;;;;;;6.27;4.27;;;1.10;99.90;;;;;;5015156;28;20172;-48
2021/01/07 00:39:49;;;;;;;4.63;3.70;;;1.10;99.90;;;;;;5013421;28;20222;-45
2021/01/07 00:42:18;;;;;;;4.17;3.67;;;1.10;99.90;;;;;;5023217;28;20250;-48
2021/01/07 00:44:44;;;;;;;4.23;3.83;;;1.10;99.90;;;;;;5025391;28;20336;-45
2021/01/07 00:47:10;;;;;;;4.60;3.70;;;1.10;99.90;;;;;;5024181;28;20234;-51
2021/01/07 00:49:35;;;;;;;3.30;2.97;;;1.10;99.90;;;;;;5023099;28;20168;-45
2021/01/07 00:52:01;;;;;;;4.23;3.60;;;1.10;99.90;;;;;;5025700;28;20242;-46
2021/01/07 00:54:29;;;;;;;4.10;3.50;;;1.10;99.90;;;;;;5003077;28;21070;-47
2021/01/07 00:56:54;;;;;;;4.90;4.03;;;1.10;99.90;;;;;;5025251;28;20266;-50
2021/01/07 00:59:19;;;;;;;4.57;3.87;;;1.10;99.90;;;;;;5021786;28;20333;-52
2021/01/07 01:01:49;;;;;;;4.60;3.70;;;1.10;99.90;;;;;;5025414;28;20195;-46
2021/01/07 01:04:15;;;;;;;3.80;3.40;;;1.10;99.90;;;;;;5022741;28;20633;-49
2021/01/07 01:06:42;;;;;;;5.97;3.73;;;1.10;99.90;;;;;;5024352;28;20262;-47
2021/01/07 01:09:10;;;;;;;4.07;3.50;;;1.10;99.90;;;;;;5012904;28;20181;-48
2021/01/07 01:11:43;;;;;;;5.00;3.87;;;1.10;99.90;;;;;;5015545;28;20959;-47
2021/01/07 01:14:10;;;;;;;3.73;3.33;;;1.10;99.90;;;;;;5023703;28;20219;-49
2021/01/07 01:16:35;;;;;;;5.67;4.20;;;1.10;99.90;;;;;;5023349;28;20305;-49
2021/01/07 01:19:02;;;;;;;4.00;3.57;;;1.10;99.90;;;;;;5025125;28;20258;-48
2021/01/07 01:21:28;;;;;;;4.30;3.20;;;1.10;99.90;;;;;;5021494;28;20732;-47
2021/01/07 01:23:53;;;;;;;5.17;3.67;;;1.10;99.90;;;;;;5025473;28;20183;-47
2021/01/07 01:26:19;;;;;;;3.53;2.83;;;1.10;99.90;;;;;;5007996;28;20660;-48
2021/01/07 01:28:44;;;;;;;3.80;3.00;;;1.10;99.90;;;;;;5024183;28;20278;-47
2021/01/07 01:31:11;;;;;;;3.63;3.20;;;1.10;99.90;;;;;;5023378;28;20663;-49
2021/01/07 01:33:37;;;;;;;3.17;2.87;;;1.10;99.90;;;;;;5023343;28;20294;-48
2021/01/07 01:36:03;;;;;;;4.07;3.60;;;1.10;99.90;;;;;;5024650;28;20315;-48
2021/01/07 01:38:28;;;;;;;3.97;3.03;;;1.10;99.90;;;;;;5021631;28;20843;-49
2021/01/07 01:41:05;;;;;;;4.40;3.43;;;1.10;99.90;;;;;;5011388;28;20304;-47
2021/01/07 01:43:33;;;;;;;3.20;2.90;;;1.10;99.90;;;;;;5021729;28;20265;-48
2021/01/07 01:45:59;;;;;;;3.43;2.80;;;1.10;99.90;;;;;;5025160;28;20206;-48
2021/01/07 01:48:26;;;;;;;3.57;3.00;;;1.10;99.90;;;;;;5021077;28;20854;-47
2021/01/07 01:50:52;;;;;;;3.80;3.40;;;1.10;99.90;;;;;;5024370;28;20216;-52
2021/01/07 01:53:17;;;;;;;3.77;3.07;;;1.10;99.90;;;;;;5021844;28;20542;-53
2021/01/07 01:55:43;;;;;;;3.10;2.80;;;1.10;99.90;;;;;;5024576;28;20230;-52
2021/01/07 01:58:11;;;;;;;4.50;3.00;;;1.10;99.90;;;;;;5009420;28;20195;-50
2021/01/07 02:00:37;;;;;;;3.03;2.73;;;1.10;99.90;;;;;;5022384;28;20175;-53
2021/01/07 02:03:06;;;;;;;3.60;3.03;;;1.10;99.90;;;;;;5024739;28;20654;-49
2021/01/07 02:05:32;;;;;;;3.20;2.60;;;1.10;99.90;;;;;;5021735;28;20171;-48
2021/01/07 02:07:59;;;;;;;3.30;3.00;;;1.10;99.90;;;;;;5024676;28;20184;-50
2021/01/07 02:10:26;;;;;;;3.80;2.87;;;1.10;99.90;;;;;;5020319;28;20174;-47
2021/01/07 02:12:52;;;;;;;4.80;2.30;;;1.10;99.90;;;;;;5010474;28;20910;-50
2021/01/07 02:15:18;;;;;;;3.50;2.67;;;1.10;99.90;;;;;;5021144;28;20189;-49
2021/01/07 02:17:43;;;;;;;3.03;2.70;;;1.10;99.90;;;;;;5024067;28;20175;-49
2021/01/07 02:20:10;;;;;;;3.13;2.43;;;1.10;99.90;;;;;;5022788;28;20179;-49
2021/01/07 02:22:36;;;;;;;3.87;2.63;;;1.10;99.90;;;;;;5021926;28;20192;-47
2021/01/07 02:25:03;;;;;;;3.70;2.83;;;1.10;99.90;;;;;;5024145;28;20191;-51
2021/01/07 02:27:28;;;;;;;3.10;2.80;;;1.10;99.90;;;;;;5006602;28;20202;-47
2021/01/07 02:29:53;;;;;;;3.73;2.73;;;1.10;99.90;;;;;;5023846;28;20180;-51
2021/01/07 02:32:19;;;;;;;3.57;2.90;;;1.10;99.90;;;;;;5018764;28;20319;-51
2021/01/07 02:34:44;;;;;;;3.47;2.70;;;1.10;99.90;;;;;;5023660;28;20192;-47
2021/01/07 02:37:10;;;;;;;2.97;2.60;;;1.10;99.90;;;;;;5021514;28;20188;-51
2021/01/07 02:39:35;;;;;;;3.90;2.90;;;1.10;99.90;;;;;;5021434;28;20229;-53
2021/01/07 02:42:01;;;;;;;3.33;2.77;;;1.10;99.90;;;;;;5024118;28;20663;-47
2021/01/07 02:44:26;;;;;;;2.97;2.67;;;1.10;99.90;;;;;;5006288;28;20293;-48
2021/01/07 02:46:52;;;;;;;3.13;2.80;;;1.10;99.90;;;;;;5023768;28;20631;-47
2021/01/07 02:49:18;;;;;;;2.83;2.50;;;1.10;99.90;;;;;;5020676;28;20209;-48
2021/01/07 02:51:44;;;;;;;3.47;3.17;;;1.10;99.90;;;;;;5023393;28;20680;-50
2021/01/07 02:54:09;;;;;;;4.10;3.03;;;1.10;99.90;;;;;;5022290;28;20194;-47
2021/01/07 02:56:35;;;;;;;3.93;3.03;;;1.10;99.90;;;;;;5021643;28;20186;-48
2021/01/07 02:59:01;;;;;;;4.40;3.30;;;1.10;99.90;;;;;;5010031;28;20217;-50
2021/01/07 03:01:27;;;;;;;4.13;3.40;;;1.10;99.90;;;;;;5019787;28;20205;-47
2021/01/07 03:03:55;;;;;;;4.63;3.43;;;1.10;99.90;;;;;;5023878;28;20175;-47
2021/01/07 03:06:21;;;;;;;4.53;3.57;;;1.10;99.90;;;;;;5020011;28;20191;-49
2021/01/07 03:08:46;;;;;;;4.53;3.67;;;1.10;99.90;;;;;;5023203;28;20634;-49
2021/01/07 03:11:12;;;;;;;4.03;3.53;;;1.10;99.90;;;;;;5020130;28;20214;-49
2021/01/07 03:13:37;;;;;;;4.57;3.70;;;1.10;99.90;;;;;;5007869;28;20210;-48
2021/01/07 03:16:03;;;;;;;4.63;3.30;;;1.10;99.90;;;;;;5023370;28;20254;-49
2021/01/07 03:18:28;;;;;;;4.43;3.63;;;1.10;99.90;;;;;;5020165;28;20914;-49
2021/01/07 03:20:54;;;;;;;4.43;3.70;;;1.10;99.90;;;;;;5021916;28;20211;-52
2021/01/07 03:23:19;;;;;;;5.43;3.07;;;1.10;99.90;;;;;;5020151;28;20544;-48
2021/01/07 03:25:45;;;;;;;4.27;3.40;;;1.10;99.90;;;;;;5023215;28;20230;-47
2021/01/07 03:28:10;;;;;;;5.53;4.20;;;1.10;99.90;;;;;;5022426;28;20191;-51
2021/01/07 03:30:35;;;;;;;4.57;3.87;;;1.10;99.90;;;;;;5006432;28;20199;-49
2021/01/07 03:33:01;;;;;;;4.57;3.47;;;1.10;99.90;;;;;;5023376;28;20211;-49
2021/01/07 03:35:26;;;;;;;4.80;3.40;;;1.10;99.90;;;;;;5022287;28;20167;-48
2021/01/07 03:37:52;;;;;;;3.93;3.40;;;1.10;99.90;;;;;;5027062;28;20306;-49
2021/01/07 03:40:17;;;;;;;5.23;3.93;;;1.10;99.90;;;;;;5023896;28;20183;-51
2021/01/07 03:42:43;;;;;;;4.43;3.07;;;1.10;99.90;;;;;;5026986;28;20229;-50
2021/01/07 03:45:09;;;;;;;4.47;3.40;;;1.10;99.90;;;;;;5012305;28;20252;-53
2021/01/07 03:47:34;;;;;;;5.97;3.30;;;1.10;99.90;;;;;;5024486;28;20206;-48
2021/01/07 03:50:00;;;;;;;4.60;3.17;;;1.10;99.90;;;;;;5027253;28;20245;-48
2021/01/07 03:52:25;;;;;;;3.20;2.80;;;1.10;99.90;;;;;;5022869;28;20210;-51
2021/01/07 03:54:50;;;;;;;4.10;3.27;;;1.10;99.90;;;;;;5027443;28;20174;-48
2021/01/07 03:57:16;;;;;;;3.83;3.20;;;1.10;99.90;;;;;;5024173;28;20178;-51
2021/01/07 03:59:41;;;;;;;4.43;3.07;;;1.10;99.90;;;;;;5026001;28;20509;-48
2021/01/07 04:02:07;;;;;;;4.97;3.57;;;1.10;99.90;;;;;;5011772;28;20208;-53
2021/01/07 04:04:32;;;;;;;4.13;3.73;;;1.10;99.90;;;;;;5024200;28;20174;-48
2021/01/07 04:06:58;;;;;;;5.80;3.83;;;1.10;99.90;;;;;;5027018;28;20643;-49
2021/01/07 04:09:23;;;;;;;4.93;3.83;;;1.10;99.90;;;;;;5022133;28;20171;-49
2021/01/07 04:11:49;;;;;;;4.70;3.53;;;1.10;99.90;;;;;;5026734;28;20710;-48
2021/01/07 04:14:14;;;;;;;5.27;3.63;;;1.10;99.90;;;;;;5024052;28;20175;-50
2021/01/07 04:16:40;;;;;;;4.37;3.53;;;1.00;99.90;;;;;;5011416;28;20195;-49
2021/01/07 04:19:05;;;;;;;4.97;3.83;;;1.00;99.90;;;;;;5025252;28;20172;-51
2021/01/07 04:21:31;;;;;;;4.37;3.13;;;1.10;99.90;;;;;;5023524;28;20194;-50
2021/01/07 04:23:57;;;;;;;5.43;3.77;;;1.10;99.90;;;;;;5026405;28;20726;-49
2021/01/07 04:26:23;;;;;;;4.27;3.60;;;1.10;99.90;;;;;;5022233;28;20178;-50
2021/01/07 04:28:49;;;;;;;4.80;3.30;;;1.10;99.90;;;;;;5026259;28;20264;-50
2021/01/07 04:31:14;;;;;;;5.00;3.53;;;1.10;99.90;;;;;;5023354;28;20238;-51
2021/01/07 04:33:40;;;;;;;5.80;3.77;;;1.10;99.90;;;;;;5011098;28;20221;-47
2021/01/07 04:36:05;;;;;;;4.20;3.57;;;1.10;99.90;;;;;;5025277;28;20238;-49
2021/01/07 04:38:31;;;;;;;4.37;3.63;;;1.10;99.90;;;;;;5022740;28;20186;-48
2021/01/07 04:40:56;;;;;;;4.23;3.13;;;1.10;99.90;;;;;;5025924;28;20199;-50
2021/01/07 04:43:22;;;;;;;3.87;3.40;;;1.10;99.90;;;;;;5021850;28;20179;-50
2021/01/07 04:45:47;;;;;;;4.73;3.50;;;1.10;99.90;;;;;;5025788;28;20253;-48
2021/01/07 04:48:13;;;;;;;4.73;3.50;;;1.10;99.90;;;;;;5010394;28;20684;-53
2021/01/07 04:50:39;;;;;;;5.97;4.03;;;1.10;99.90;;;;;;5023845;28;20171;-52
2021/01/07 04:53:05;;;;;;;5.90;3.27;;;1.10;99.90;;;;;;5025163;28;20638;-52
2021/01/07 04:55:31;;;;;;;3.80;3.20;;;1.10;99.90;;;;;;5022700;28;20167;-49
2021/01/07 04:57:56;;;;;;;4.00;3.27;;;1.10;99.90;;;;;;5025949;28;20174;-49
2021/01/07 05:00:23;;;;;;;3.70;3.23;;;1.10;99.90;;;;;;5021575;28;20176;-50
2021/01/07 05:02:49;;;;;;;3.10;2.73;;;1.10;99.90;;;;;;5025433;28;20256;-49
2021/01/07 05:05:15;;;;;;;3.97;2.93;;;1.10;99.90;;;;;;5009463;28;20226;-52
2021/01/07 05:07:40;;;;;;;4.40;3.80;;;1.10;99.90;;;;;;5024162;28;20214;-49
2021/01/07 05:10:11;;;;;;;5.03;3.70;;;1.10;99.90;;;;;;5024494;28;20187;-52
2021/01/07 05:12:38;;;;;;;4.63;3.10;;;1.10;99.90;;;;;;5023012;28;20201;-47
2021/01/07 05:15:06;;;;;;;4.37;3.43;;;1.10;99.90;;;;;;5025372;28;20250;-50
2021/01/07 05:17:31;;;;;;;4.50;3.07;;;1.10;99.90;;;;;;5022227;28;20213;-48
2021/01/07 05:19:57;;;;;;;4.13;3.03;;;1.10;99.90;;;;;;5011586;28;20774;-47
2021/01/07 05:22:58;;;;;;;3.23;2.83;;;1.10;99.90;;;;;;5020913;28;20234;-47
2021/01/07 05:25:23;;;;;;;3.10;2.77;;;1.10;99.90;;;;;;4989139;28;20297;-49
2021/01/07 05:27:50;;;;;;;4.07;3.20;;;1.10;99.90;;;;;;5025099;28;20254;-47
2021/01/07 05:30:16;;;;;;;4.67;3.03;;;1.10;99.90;;;;;;5022320;28;20183;-52
2021/01/07 05:32:43;;;;;;;4.47;3.20;;;1.10;99.90;;;;;;5023751;28;20642;-49
2021/01/07 05:35:15;;;;;;;4.37;2.97;;;1.10;99.90;;;;;;5009984;28;20184;-50
2021/01/07 05:37:40;;;;;;;3.60;2.87;;;1.10;99.90;;;;;;5023425;28;20932;-48
2021/01/07 05:40:08;;;;;;;6.03;2.70;;;1.10;99.90;;;;;;5023582;28;20215;-52
2021/01/07 05:42:41;;;;;;;3.93;2.90;;;1.10;99.90;;;;;;5020936;28;20947;-47
2021/01/07 05:45:09;;;;;;;3.67;2.93;;;1.10;99.90;;;;;;5023729;28;20188;-49
2021/01/07 05:47:44;;;;;;;4.00;3.40;;;1.10;99.90;;;;;;5022243;28;20202;-47
2021/01/07 05:50:12;;;;;;;4.63;3.30;;;1.10;99.90;;;;;;5016636;28;20841;-47
2021/01/07 05:52:46;;;;;;;3.93;2.80;;;1.10;99.90;;;;;;5016988;28;20213;-47
2021/01/07 05:55:13;;;;;;;3.90;3.27;;;1.10;99.90;;;;;;5023039;28;20241;-50
2021/01/07 05:57:39;;;;;;;4.20;3.00;;;1.10;99.90;;;;;;5022421;28;20164;-50
2021/01/07 06:00:07;;;;;;;4.50;3.10;;;1.10;99.90;;;;;;5023566;28;20649;-50
2021/01/07 06:02:36;;;;;;;3.20;2.80;;;1.10;99.90;;;;;;5021430;28;20199;-47
2021/01/07 06:05:03;;;;;;;4.70;3.13;;;1.10;99.90;;;;;;5004710;28;20173;-50
2021/01/07 06:07:30;;;;;;;3.70;2.97;;;1.10;99.90;;;;;;4999047;28;20253;-47
2021/01/07 06:09:57;;;;;;;4.03;3.10;;;1.10;99.90;;;;;;5024107;28;20274;-48
2021/01/07 06:12:22;;;;;;;3.77;3.00;;;1.10;99.90;;;;;;5019705;28;20865;-51
2021/01/07 06:14:48;;;;;;;4.80;3.50;;;1.10;99.90;;;;;;5012961;28;20208;-48
2021/01/07 06:17:14;;;;;;;3.93;2.93;;;1.10;99.90;;;;;;5023844;28;20183;-47
2021/01/07 06:19:41;;;;;;;4.00;3.07;;;1.10;99.90;;;;;;5020903;28;20176;-49
2021/01/07 06:22:15;;;;;;;3.77;2.83;;;1.10;99.90;;;;;;5009934;28;20688;-48
2021/01/07 06:24:41;;;;;;;4.97;3.10;;;1.10;99.90;;;;;;5020303;28;20191;-50
2021/01/07 06:27:31;;;;;;;4.40;3.40;;;1.10;99.90;;;;;;5023774;28;20172;-48
2021/01/07 06:30:05;;;;;;;3.53;2.80;;;1.10;99.90;;;;;;5025751;28;20781;-48
2021/01/07 06:32:31;;;;;;;4.20;2.93;;;1.10;99.90;;;;;;5020326;28;20317;-51
2021/01/07 06:34:58;;;;;;;4.67;3.20;;;1.10;99.90;;;;;;5021914;28;20246;-47
2021/01/07 06:37:30;;;;;;;4.97;3.50;;;1.10;99.90;;;;;;5010268;28;20549;-52
2021/01/07 06:39:58;;;;;;;6.60;6.03;;;1.10;99.90;;;;;;5021054;28;20222;-47
2021/01/07 06:42:23;;;;;;;4.47;3.13;;;1.10;99.90;;;;;;5023470;28;20203;-49
2021/01/07 06:44:51;;;;;;;2.97;2.67;;;1.10;99.90;;;;;;5012919;28;20241;-47
2021/01/07 06:47:20;;;;;;;5.03;3.80;;;1.10;99.90;;;;;;5035823;28;20192;-50
2021/01/07 06:49:48;;;;;;;6.57;3.40;;;1.10;99.90;;;;;;5014678;28;20195;-49
2021/01/07 06:52:14;;;;;;;3.70;3.03;;;1.10;99.90;;;;;;5023502;28;20211;-49
2021/01/07 06:54:45;;;;;;;3.70;3.00;;;1.10;99.90;;;;;;5006054;28;20214;-47
2021/01/07 06:57:15;;;;;;;6.03;3.90;;;1.10;99.90;;;;;;5023775;28;20193;-47
2021/01/07 07:00:02;;;;;;;5.73;3.93;;;1.10;99.90;;;;;;5016582;28;20168;-47
2021/01/07 07:02:28;;;;;;;4.43;3.30;;;1.10;99.90;;;;;;5012789;28;20201;-47
2021/01/07 07:05:04;;;;;;;4.70;3.17;;;1.10;99.90;;;;;;5019264;28;20916;-47
2021/01/07 07:07:39;;;;;;;5.77;4.03;;;1.10;99.90;;;;;;5020227;28;20233;-48
2021/01/07 07:10:22;;;;;;;4.47;3.47;;;1.10;99.90;;;;;;5003058;28;20186;-51
2021/01/07 07:12:49;;;;;;;4.40;2.93;;;1.10;99.90;;;;;;5020803;28;20202;-50
2021/01/07 07:15:22;;;;;;;4.27;3.20;;;1.10;99.90;;;;;;5017108;28;20190;-49
2021/01/07 07:17:48;;;;;;;4.47;3.10;;;1.20;99.90;;;;;;5022675;28;20184;-48
2021/01/07 07:20:21;;;;;;;5.17;3.27;;;1.20;99.90;;;;;;5013927;28;20604;-47
2021/01/07 07:22:47;;;;;;;6.27;3.87;;;1.20;99.90;;;;;;5027813;28;20210;-50
2021/01/07 07:25:21;;;;;;;4.83;2.60;;;1.20;99.90;;;;;;5015414;28;20210;-47
2021/01/07 07:27:55;;;;;;;4.63;3.23;;;1.20;99.90;;;;;;5019174;28;20193;-50
2021/01/07 07:30:28;;;;;;;6.60;3.67;;;1.20;99.90;;;;;;5023261;28;20558;-50
2021/01/07 07:32:54;;;;;;;4.80;3.50;;;1.20;99.90;;;;;;5030863;28;20202;-51
2021/01/07 07:35:28;;;;;;;4.93;3.53;;;1.20;99.90;;;;;;5023500;28;20191;-50
2021/01/07 07:37:55;;;;;;;5.13;3.50;;;1.20;99.90;;;;;;5024742;28;20194;-49
2021/01/07 07:40:38;;;;;;;4.73;3.53;;;1.20;99.90;;;;;;5010819;28;20199;-51
2021/01/07 07:43:06;;;;;;;6.40;3.57;;;1.20;99.90;;;;;;5022934;28;20381;-51
2021/01/07 07:45:33;;;;;;;5.03;3.70;;;1.20;99.90;;;;;;5019995;28;20205;-48
2021/01/07 07:47:59;;;;;;;4.43;3.37;;;1.20;99.90;;;;;;5019226;28;20271;-48
2021/01/07 07:50:30;;;;;;;4.50;3.53;;;1.20;99.90;;;;;;5021694;28;20195;-49
2021/01/07 07:53:12;;;;;;;5.23;3.83;;;1.20;99.90;;;;;;5015989;28;21693;-47
2021/01/07 07:55:38;;;;;;;4.53;3.30;;;1.20;99.90;;;;;;4999763;28;20231;-53
2021/01/07 07:58:15;;;;;;;5.80;3.77;;;1.20;99.90;;;;;;5023007;28;20697;-47
2021/01/07 08:01:00;;;;;;;6.47;4.20;;;1.20;99.90;;;;;;5018411;28;20185;-47
2021/01/07 08:03:27;;;;;;;5.20;3.70;;;1.30;99.90;;;;;;5017160;28;20591;-52
2021/01/07 08:05:54;;;;;;;6.00;4.03;;;1.30;99.90;;;;;;5020632;28;20175;-46
2021/01/07 08:08:24;;;;;;;5.40;3.47;;;1.20;99.90;;;;;;5025004;28;20194;-47
2021/01/07 08:10:49;;;;;;;5.33;3.47;;;1.30;99.90;;;;;;5009256;28;20305;-47
2021/01/07 08:13:19;;;;;;;5.07;3.83;;;1.30;99.90;;;;;;5022731;28;20301;-51
2021/01/07 08:15:50;;;;;;;4.93;3.43;;;1.30;99.90;;;;;;5019085;28;20942;-49
2021/01/07 08:18:25;;;;;;;4.97;3.60;;;1.30;99.90;;;;;;5031339;28;20187;-49
2021/01/07 08:20:52;;;;;;;4.47;3.47;;;1.20;99.90;;;;;;5038552;28;20238;-48
2021/01/07 08:23:20;;;;;;;5.10;3.90;;;1.30;99.90;;;;;;5026631;28;20180;-48
2021/01/07 08:25:47;;;;;;;4.63;3.17;;;1.20;99.90;;;;;;5035803;28;20257;-47
2021/01/07 08:28:27;;;;;;;5.90;3.77;;;1.30;99.90;;;;;;5018840;28;20202;-49
2021/01/07 08:30:56;;;;;;;5.90;3.70;;;1.30;99.90;;;;;;5023733;28;20194;-48
2021/01/07 08:33:23;;;;;;;5.93;4.00;;;1.30;99.90;;;;;;5021471;28;20219;-49
2021/01/07 08:35:52;;;;;;;6.53;3.87;;;1.30;99.90;;;;;;5023267;28;20233;-51
2021/01/07 08:38:30;;;;;;;6.23;4.00;;;1.30;99.90;;;;;;5026183;28;20183;-48
2021/01/07 08:41:16;;;;;;;6.13;4.20;;;1.30;99.90;;;;;;5040377;28;20206;-49
2021/01/07 08:43:43;;;;;;;6.20;4.13;;;1.30;99.90;;;;;;5018687;28;20243;-50
2021/01/07 08:46:19;;;;;;;7.30;4.30;;;1.30;99.90;;;;;;5026181;28;20184;-48
2021/01/07 08:49:00;;;;;;;6.60;4.57;;;1.30;99.90;;;;;;5018729;28;20177;-51
2021/01/07 08:51:25;;;;;;;7.83;5.50;;;1.30;99.90;;;;;;5016123;28;20186;-50
2021/01/07 08:53:56;;;;;;;8.03;4.60;;;1.30;99.90;;;;;;5025727;28;20203;-48
2021/01/07 08:56:34;;;;;;;8.63;5.20;;;1.30;99.90;;;;;;5029817;28;20210;-51
2021/01/07 08:59:21;;;;;;;7.63;5.50;;;1.30;99.90;;;;;;5000057;28;20593;-46
2021/01/07 09:01:49;;;;;;;8.40;6.00;;;1.40;99.90;;;;;;5015925;28;20202;-52
2021/01/07 09:04:25;;;;;;;13.43;5.77;;;1.30;99.90;;;;;;5025530;28;20202;-50
2021/01/07 09:07:07;;;;;;;7.83;5.03;;;1.30;99.90;;;;;;5027932;28;20282;-48
2021/01/07 09:09:56;;;;;;;7.90;5.43;;;1.30;99.90;;;;;;5026957;28;20180;-50
2021/01/07 09:12:35;;;;;;;7.67;5.10;;;1.30;99.90;;;;;;5025127;28;20208;-48
2021/01/07 09:15:11;;;;;;;9.33;5.93;;;1.30;99.90;;;;;;5018571;28;20278;-47
2021/01/07 09:17:45;;;;;;;8.43;5.33;;;1.40;99.90;;;;;;5027556;28;20170;-48
2021/01/07 09:20:11;;;;;;;7.53;4.97;;;1.40;99.90;;;;;;5030903;28;20190;-46
2021/01/07 09:22:36;;;;;;;8.37;5.07;;;1.40;99.90;;;;;;5022562;28;20991;-46
2021/01/07 09:25:03;;;;;;;9.77;5.97;;;1.40;99.90;;;;;;5026905;28;20229;-47
2021/01/07 09:27:28;;;;;;;8.70;5.37;;;1.40;99.90;;;;;;5015126;28;20188;-50
2021/01/07 09:29:54;;;;;;;7.80;5.33;;;1.40;99.90;;;;;;5015230;28;20187;-48
2021/01/07 09:32:19;;;;;;;11.83;5.97;;;1.40;99.90;;;;;;5021770;28;20213;-48
2021/01/07 09:34:45;;;;;;;9.27;5.30;;;1.40;99.90;;;;;;5027015;28;20180;-50
2021/01/07 09:37:15;;;;;;;7.07;4.43;;;1.50;99.90;;;;;;5018991;28;20202;-49
2021/01/07 09:39:42;;;;;;;9.77;5.37;;;1.40;99.90;;;;;;5018486;28;20538;-48
2021/01/07 09:42:08;;;;;;;9.13;5.10;;;1.40;99.90;;;;;;5024412;28;20664;-46
2021/01/07 09:44:34;;;;;;;7.63;5.10;;;1.50;99.90;;;;;;5021863;28;20176;-48
2021/01/07 09:47:00;;;;;;;6.17;4.77;;;1.50;99.90;;;;;;5015375;28;20192;-46
2021/01/07 09:49:27;;;;;;;9.80;5.57;;;1.50;99.90;;;;;;5022814;28;20187;-48
2021/01/07 09:51:53;;;;;;;9.03;5.27;;;1.50;99.90;;;;;;5022805;28;20237;-47
2021/01/07 09:54:20;;;;;;;10.07;5.50;;;1.50;99.90;;;;;;5023152;28;20203;-45
2021/01/07 09:56:45;;;;;;;8.13;5.70;;;1.50;99.90;;;;;;5027363;28;20168;-47
2021/01/07 09:59:11;;;;;;;8.00;5.00;;;1.50;99.90;;;;;;5019270;28;20191;-45
2021/01/07 10:01:37;;;;;;;8.07;4.80;;;1.60;99.90;;;;;;5012856;28;20208;-47
2021/01/07 10:04:03;;;;;;;10.20;5.07;;;1.50;99.90;;;;;;5026240;28;20179;-46
2021/01/07 10:06:28;;;;;;;7.47;4.60;;;1.60;99.90;;;;;;5020279;28;20233;-50
2021/01/07 10:08:54;;;;;;;7.57;4.77;;;1.60;99.90;;;;;;5021970;28;20543;-46
2021/01/07 10:11:19;;;;;;;8.17;5.00;;;1.60;99.90;;;;;;5023002;28;20237;-47
2021/01/07 10:13:45;;;;;;;68.50;8.33;;;1.60;99.90;;;;;;5022013;28;20207;-48
2021/01/07 10:16:14;;;;;;;5.60;4.73;;;1.60;99.90;;;;;;5018022;28;20191;-47
2021/01/07 10:18:40;;;;;;;6.70;4.87;;;1.60;99.90;;;;;;5023535;28;20187;-49
2021/01/07 10:21:09;;;;;;;7.13;4.87;;;1.60;99.90;;;;;;5026698;28;20215;-46
2021/01/07 10:23:35;;;;;;;8.13;4.60;;;1.70;99.90;;;;;;5021143;28;20948;-49
2021/01/07 10:26:01;;;;;;;7.23;4.77;;;1.70;99.90;;;;;;5025107;28;20605;-46
2021/01/07 10:28:28;;;;;;;7.33;5.10;;;1.80;99.90;;;;;;5020421;28;20233;-48
2021/01/07 10:30:54;;;;;;;7.83;4.87;;;1.70;99.90;;;;;;5018044;28;20576;-47
2021/01/07 10:33:20;;;;;;;6.57;4.20;;;1.70;99.90;;;;;;5006333;28;20219;-51
2021/01/07 10:35:46;;;;;;;6.93;4.17;;;1.70;99.90;;;;;;5023442;28;20173;-47
2021/01/07 10:38:16;;;;;;;8.03;4.67;;;1.80;99.90;;;;;;5017123;28;20184;-50
2021/01/07 10:40:47;;;;;;;7.20;4.63;;;1.70;99.90;;;;;;5023282;28;20271;-47
2021/01/07 10:43:13;;;;;;;7.57;4.50;;;1.70;99.90;;;;;;5021018;28;20684;-49
2021/01/07 10:45:40;;;;;;;8.07;4.47;;;1.70;99.90;;;;;;5017611;28;20202;-47
2021/01/07 10:48:14;;;;;;;6.47;4.57;;;1.70;99.90;;;;;;5018309;28;20251;-53
2021/01/07 10:50:41;;;;;;;7.37;4.30;;;1.80;99.90;;;;;;5018925;28;20222;-48
2021/01/07 10:53:13;;;;;;;7.07;4.40;;;1.80;99.90;;;;;;5022033;28;20204;-50
2021/01/07 10:55:52;;;;;;;7.67;4.30;;;1.70;99.90;;;;;;5020585;28;20183;-47
2021/01/07 10:58:49;;;;;;;6.10;4.20;;;1.70;99.90;;;;;;5020447;28;20172;-51
2021/01/07 11:01:43;;;;;;;6.40;4.40;;;1.70;99.90;;;;;;5015760;28;20214;-49
2021/01/07 11:04:25;;;;;;;5.30;3.90;;;1.70;99.90;;;;;;5007280;28;20195;-51
2021/01/07 11:07:00;;;;;;;6.30;4.30;;;1.70;99.90;;;;;;5014319;28;20195;-49
2021/01/07 11:09:30;;;;;;;5.07;3.83;;;1.70;99.90;;;;;;5009461;28;20248;-49
2021/01/07 11:12:02;;;;;;;6.73;4.57;;;1.70;99.90;;;;;;5023619;28;20192;-50
2021/01/07 11:14:36;;;;;;;7.93;4.30;;;1.70;99.90;;;;;;5020277;28;20203;-48
2021/01/07 11:17:09;;;;;;;7.73;4.40;;;1.70;99.90;;;;;;5018265;28;20226;-53
2021/01/07 11:19:36;;;;;;;6.13;4.10;;;1.70;99.90;;;;;;5007053;28;20281;-49
2021/01/07 11:22:28;;;;;;;7.70;4.80;;;1.70;99.90;;;;;;5016092;28;20771;-51
2021/01/07 11:24:55;;;;;;;6.53;3.90;;;1.70;99.90;;;;;;5020046;28;20191;-48
2021/01/07 11:27:24;;;;;;;5.30;3.77;;;1.70;99.90;;;;;;5019879;28;20171;-49
2021/01/07 11:29:51;;;;;;;4.10;3.63;;;1.70;99.90;;;;;;5023667;28;20175;-51
2021/01/07 11:32:17;;;;;;;6.20;3.90;;;1.70;99.90;;;;;;5015571;28;20223;-52
2021/01/07 11:34:44;;;;;;;5.90;4.20;;;1.70;99.90;;;;;;5022882;28;20192;-47
2021/01/07 11:37:43;;;;;;;5.67;3.60;;;1.70;99.90;;;;;;5009016;28;20234;-51
2021/01/07 11:40:18;;;;;;;8.30;4.20;;;1.70;99.90;;;;;;5005972;28;20184;-50
2021/01/07 11:43:02;;;;;;;7.67;4.10;;;1.70;99.90;;;;;;5023223;28;20282;-52
2021/01/07 11:45:35;;;;;;;6.77;4.30;;;1.70;99.90;;;;;;5016760;28;20238;-47
2021/01/07 11:48:07;;;;;;;9.73;4.73;;;1.70;99.90;;;;;;5018243;28;20192;-52
2021/01/07 11:50:36;;;;;;;5.70;4.23;;;1.70;99.90;;;;;;5007747;28;21688;-49
2021/01/07 11:53:05;;;;;;;4.93;4.13;;;1.70;99.90;;;;;;5014530;28;20199;-52
2021/01/07 11:55:32;;;;;;;7.60;4.20;;;1.70;99.90;;;;;;5017896;28;20187;-50
2021/01/07 11:57:59;;;;;;;7.13;4.37;;;1.60;99.90;;;;;;5026842;28;20210;-47
2021/01/07 12:00:25;;;;;;;6.27;3.63;;;1.70;99.90;;;;;;5022741;28;20175;-47
2021/01/07 12:02:51;;;;;;;5.03;3.80;;;1.70;99.90;;;;;;5021595;28;20274;-51
2021/01/07 12:05:19;;;;;;;3.90;3.37;;;1.70;99.90;;;;;;5022662;28;20656;-48
2021/01/07 12:08:07;;;;;;;10.17;4.00;;;1.70;99.90;;;;;;5011941;28;20241;-51
2021/01/07 12:10:39;;;;;;;5.43;3.77;;;1.70;99.90;;;;;;5014546;28;20223;-49
2021/01/07 12:13:16;;;;;;;7.20;4.23;;;1.70;99.90;;;;;;5024629;28;20298;-48
2021/01/07 12:15:44;;;;;;;5.53;4.10;;;1.70;99.90;;;;;;5026055;28;20168;-46
2021/01/07 12:18:11;;;;;;;5.70;4.00;;;1.70;99.90;;;;;;5022743;28;20204;-48
2021/01/07 12:20:37;;;;;;;6.93;3.97;;;1.70;99.90;;;;;;5020568;28;20901;-46
2021/01/07 12:23:03;;;;;;;5.33;4.23;;;1.70;99.90;;;;;;5007762;28;20203;-52
2021/01/07 12:25:30;;;;;;;6.50;3.90;;;1.70;99.90;;;;;;5022924;28;20203;-50
2021/01/07 12:27:57;;;;;;;7.27;4.50;;;1.70;99.90;;;;;;5022269;28;20653;-47
2021/01/07 12:30:24;;;;;;;7.63;4.57;;;1.70;99.90;;;;;;5021964;28;20183;-48
2021/01/07 12:33:15;;;;;;;7.97;4.37;;;1.70;99.90;;;;;;5026223;28;20290;-48
2021/01/07 12:35:46;;;;;;;6.97;5.07;;;1.70;99.90;;;;;;5017077;28;20196;-47
2021/01/07 12:38:20;;;;;;;10.73;5.20;;;1.70;99.90;;;;;;5008659;28;20813;-48
2021/01/07 12:40:54;;;;;;;7.97;4.80;;;1.70;99.90;;;;;;5025812;28;20261;-46
2021/01/07 12:43:20;;;;;;;7.03;5.00;;;1.70;99.90;;;;;;5017681;28;20206;-48
2021/01/07 12:45:52;;;;;;;8.07;5.13;;;1.80;99.90;;;;;;5023323;28;20302;-47
2021/01/07 12:48:19;;;;;;;7.97;4.77;;;1.80;99.90;;;;;;5020278;28;20207;-50
2021/01/07 12:50:46;;;;;;;8.57;5.33;;;1.80;99.90;;;;;;5017569;28;20200;-47
2021/01/07 12:53:11;;;;;;;5.40;3.97;;;1.80;99.90;;;;;;5010057;28;20262;-51
2021/01/07 12:55:37;;;;;;;7.63;4.97;;;1.80;99.90;;;;;;5024300;28;20835;-48
2021/01/07 12:58:20;;;;;;;7.63;5.00;;;1.80;99.90;;;;;;5020378;28;20202;-50
2021/01/07 13:01:17;;;;;;;7.50;5.10;;;1.80;99.90;;;;;;5025539;28;20176;-46
2021/01/07 13:04:00;;;;;;;6.13;4.60;;;1.80;99.90;;;;;;5025080;28;20191;-48
2021/01/07 13:06:34;;;;;;;7.80;4.70;;;1.80;99.90;;;;;;5014231;28;20207;-46